James Island, South Carolina
Current Conditions -  °F | °C
As of 11:35 AM on Wednesday 22 Oct 2014 (Local Time) from KJZI Reporting Station
Clear Clear  
Wind Chill: 18°   Ceiling: Unl
Heat Index: 18°   Visibility: 10mi
Dew Point:   Wind: 12mph
Humidity: 49%   Direction: 360°N
Pressure: 30.05"   Gusts: 16mph
Location:  32.7248°N, 79.9608°W
Report Text: KJZI 221535Z AUTO 36010G14KT 10SM CLR 18/07 A3005 RMK A02 P000
Loading
Personal Weather Stations






























Interactive Weather Map
Tropical Storm Tracking
New forecast layout! Learn more

10-Day Weather Forecast

Advertisements
Track Severe Weather on mobile